sensor_id;sensor_type;location;lat;lon;timestamp;temperature;humidity
13251;DHT22;6692;50.710;7.180;2023-07-22T00:00:08;14.30;99.90
13251;DHT22;6692;50.710;7.180;2023-07-22T00:02:10;14.20;99.90
13251;DHT22;6692;50.710;7.180;2023-07-22T00:04:10;14.20;99.90
13251;DHT22;6692;50.710;7.180;2023-07-22T00:06:11;14.20;99.90
13251;DHT22;6692;50.710;7.180;2023-07-22T00:08:12;14.20;99.90
13251;DHT22;6692;50.710;7.180;2023-07-22T00:10:13;14.20;99.90
13251;DHT22;6692;50.710;7.180;2023-07-22T00:12:13;14.20;99.90
13251;DHT22;6692;50.710;7.180;2023-07-22T00:14:14;14.20;99.90
13251;DHT22;6692;50.710;7.180;2023-07-22T00:16:15;14.10;99.90
13251;DHT22;6692;50.710;7.180;2023-07-22T00:18:16;14.10;99.90
13251;DHT22;6692;50.710;7.180;2023-07-22T00:20:18;14.10;99.90
13251;DHT22;6692;50.710;7.180;2023-07-22T00:22:18;14.10;99.90
13251;DHT22;6692;50.710;7.180;2023-07-22T00:24:19;14.10;99.90
13251;DHT22;6692;50.710;7.180;2023-07-22T00:26:20;14.10;99.90
13251;DHT22;6692;50.710;7.180;2023-07-22T00:28:21;14.10;99.90
13251;DHT22;6692;50.710;7.180;2023-07-22T00:30:22;14.10;99.90
13251;DHT22;6692;50.710;7.180;2023-07-22T00:32:23;14.10;99.90
13251;DHT22;6692;50.710;7.180;2023-07-22T00:34:24;14.10;99.90
13251;DHT22;6692;50.710;7.180;2023-07-22T00:36:25;14.00;99.90
13251;DHT22;6692;50.710;7.180;2023-07-22T00:38:26;14.10;99.90
13251;DHT22;6692;50.710;7.180;2023-07-22T00:40:27;14.00;99.90
13251;DHT22;6692;50.710;7.180;2023-07-22T00:42:28;14.00;99.90
13251;DHT22;6692;50.710;7.180;2023-07-22T00:44:28;13.90;99.90
13251;DHT22;6692;50.710;7.180;2023-07-22T00:46:29;13.90;99.90
13251;DHT22;6692;50.710;7.180;2023-07-22T00:48:29;13.90;99.90
13251;DHT22;6692;50.710;7.180;2023-07-22T00:50:30;13.90;99.90
13251;DHT22;6692;50.710;7.180;2023-07-22T00:52:31;13.90;99.90
13251;DHT22;6692;50.710;7.180;2023-07-22T00:54:32;14.00;99.90
13251;DHT22;6692;50.710;7.180;2023-07-22T00:56:33;13.90;99.90
13251;DHT22;6692;50.710;7.180;2023-07-22T00:58:33;13.90;99.90
13251;DHT22;6692;50.710;7.180;2023-07-22T01:00:34;13.90;99.90
13251;DHT22;6692;50.710;7.180;2023-07-22T01:02:35;13.80;99.90
13251;DHT22;6692;50.710;7.180;2023-07-22T01:04:36;13.80;99.90
13251;DHT22;6692;50.710;7.180;2023-07-22T01:06:37;13.80;99.90
13251;DHT22;6692;50.710;7.180;2023-07-22T01:08:37;13.80;99.90
13251;DHT22;6692;50.710;7.180;2023-07-22T01:10:39;13.70;99.90
13251;DHT22;6692;50.710;7.180;2023-07-22T01:12:39;13.70;99.90
13251;DHT22;6692;50.710;7.180;2023-07-22T01:14:41;13.70;99.90
13251;DHT22;6692;50.710;7.180;2023-07-22T01:16:41;13.70;99.90
13251;DHT22;6692;50.710;7.180;2023-07-22T01:18:42;13.70;99.90
13251;DHT22;6692;50.710;7.180;2023-07-22T01:20:42;13.70;99.90
13251;DHT22;6692;50.710;7.180;2023-07-22T01:22:48;13.70;99.90
13251;DHT22;6692;50.710;7.180;2023-07-22T01:24:44;13.70;99.90
13251;DHT22;6692;50.710;7.180;2023-07-22T01:26:45;13.60;99.90
13251;DHT22;6692;50.710;7.180;2023-07-22T01:28:46;13.60;99.90
13251;DHT22;6692;50.710;7.180;2023-07-22T01:30:47;13.60;99.90
13251;DHT22;6692;50.710;7.180;2023-07-22T01:32:47;13.60;99.90
13251;DHT22;6692;50.710;7.180;2023-07-22T01:34:48;13.60;99.90
13251;DHT22;6692;50.710;7.180;2023-07-22T01:36:49;13.60;99.90
13251;DHT22;6692;50.710;7.180;2023-07-22T01:38:49;13.60;99.90
13251;DHT22;6692;50.710;7.180;2023-07-22T01:40:51;13.70;99.90
13251;DHT22;6692;50.710;7.180;2023-07-22T01:42:53;13.60;99.90
13251;DHT22;6692;50.710;7.180;2023-07-22T01:44:54;13.60;99.90
13251;DHT22;6692;50.710;7.180;2023-07-22T01:46:54;13.60;99.90
13251;DHT22;6692;50.710;7.180;2023-07-22T01:48:55;13.60;99.90
13251;DHT22;6692;50.710;7.180;2023-07-22T01:50:57;13.50;99.90
13251;DHT22;6692;50.710;7.180;2023-07-22T01:52:57;13.50;99.90
13251;DHT22;6692;50.710;7.180;2023-07-22T01:54:58;13.50;99.90
13251;DHT22;6692;50.710;7.180;2023-07-22T01:56:59;13.40;99.90
13251;DHT22;6692;50.710;7.180;2023-07-22T01:58:59;13.40;99.90
13251;DHT22;6692;50.710;7.180;2023-07-22T02:01:00;13.40;99.90
13251;DHT22;6692;50.710;7.180;2023-07-22T02:03:02;13.30;99.90
13251;DHT22;6692;50.710;7.180;2023-07-22T02:05:02;13.30;99.90
13251;DHT22;6692;50.710;7.180;2023-07-22T02:07:03;13.30;99.90
13251;DHT22;6692;50.710;7.180;2023-07-22T02:09:05;13.30;99.90
13251;DHT22;6692;50.710;7.180;2023-07-22T02:11:07;13.30;99.90
13251;DHT22;6692;50.710;7.180;2023-07-22T02:13:07;13.40;99.90
13251;DHT22;6692;50.710;7.180;2023-07-22T02:15:09;13.40;99.90
13251;DHT22;6692;50.710;7.180;2023-07-22T02:17:09;13.40;99.90
13251;DHT22;6692;50.710;7.180;2023-07-22T02:19:11;13.40;99.90
13251;DHT22;6692;50.710;7.180;2023-07-22T02:21:11;13.30;99.90
13251;DHT22;6692;50.710;7.180;2023-07-22T02:23:13;13.40;99.90
13251;DHT22;6692;50.710;7.180;2023-07-22T02:25:14;13.40;99.90
13251;DHT22;6692;50.710;7.180;2023-07-22T02:27:14;13.40;99.90
13251;DHT22;6692;50.710;7.180;2023-07-22T02:29:15;13.40;99.90
13251;DHT22;6692;50.710;7.180;2023-07-22T02:31:16;13.40;99.90
13251;DHT22;6692;50.710;7.180;2023-07-22T02:33:17;13.40;99.90
13251;DHT22;6692;50.710;7.180;2023-07-22T02:35:18;13.40;99.90
13251;DHT22;6692;50.710;7.180;2023-07-22T02:37:19;13.40;99.90
13251;DHT22;6692;50.710;7.180;2023-07-22T02:39:19;13.40;99.90
13251;DHT22;6692;50.710;7.180;2023-07-22T02:41:20;13.40;99.90
13251;DHT22;6692;50.710;7.180;2023-07-22T02:43:21;13.40;99.90
13251;DHT22;6692;50.710;7.180;2023-07-22T02:45:22;13.40;99.90
13251;DHT22;6692;50.710;7.180;2023-07-22T02:47:22;13.40;99.90
13251;DHT22;6692;50.710;7.180;2023-07-22T02:49:23;13.30;99.90
13251;DHT22;6692;50.710;7.180;2023-07-22T02:51:24;13.40;99.90
13251;DHT22;6692;50.710;7.180;2023-07-22T02:53:25;13.40;99.90
13251;DHT22;6692;50.710;7.180;2023-07-22T02:55:26;13.30;99.90
13251;DHT22;6692;50.710;7.180;2023-07-22T02:57:26;13.30;99.90
13251;DHT22;6692;50.710;7.180;2023-07-22T02:59:28;13.30;99.90
13251;DHT22;6692;50.710;7.180;2023-07-22T03:01:29;13.30;99.90
13251;DHT22;6692;50.710;7.180;2023-07-22T03:03:29;13.30;99.90
13251;DHT22;6692;50.710;7.180;2023-07-22T03:05:31;13.20;99.90
13251;DHT22;6692;50.710;7.180;2023-07-22T03:07:31;13.20;99.90
13251;DHT22;6692;50.710;7.180;2023-07-22T03:09:32;13.30;99.90
13251;DHT22;6692;50.710;7.180;2023-07-22T03:11:33;13.20;99.90
13251;DHT22;6692;50.710;7.180;2023-07-22T03:13:34;13.20;99.90
13251;DHT22;6692;50.710;7.180;2023-07-22T03:15:35;13.20;99.90
13251;DHT22;6692;50.710;7.180;2023-07-22T03:17:36;13.20;99.90
13251;DHT22;6692;50.710;7.180;2023-07-22T03:19:37;13.20;99.90
13251;DHT22;6692;50.710;7.180;2023-07-22T03:21:38;13.20;99.90
13251;DHT22;6692;50.710;7.180;2023-07-22T03:23:39;13.20;99.90
13251;DHT22;6692;50.710;7.180;2023-07-22T03:25:40;13.20;99.90
13251;DHT22;6692;50.710;7.180;2023-07-22T03:27:41;13.20;99.90
13251;DHT22;6692;50.710;7.180;2023-07-22T03:29:41;13.10;99.90
13251;DHT22;6692;50.710;7.180;2023-07-22T03:31:42;13.10;99.90
13251;DHT22;6692;50.710;7.180;2023-07-22T03:33:43;13.10;99.90
13251;DHT22;6692;50.710;7.180;2023-07-22T03:35:44;13.10;99.90
13251;DHT22;6692;50.710;7.180;2023-07-22T03:37:44;13.20;99.90
13251;DHT22;6692;50.710;7.180;2023-07-22T03:39:45;13.20;99.90
13251;DHT22;6692;50.710;7.180;2023-07-22T03:41:46;13.10;99.90
13251;DHT22;6692;50.710;7.180;2023-07-22T03:43:46;13.10;99.90
13251;DHT22;6692;50.710;7.180;2023-07-22T03:45:48;13.00;99.90
13251;DHT22;6692;50.710;7.180;2023-07-22T03:47:51;13.00;99.90
13251;DHT22;6692;50.710;7.180;2023-07-22T03:49:51;13.00;99.90
13251;DHT22;6692;50.710;7.180;2023-07-22T03:51:52;13.00;99.90
13251;DHT22;6692;50.710;7.180;2023-07-22T03:53:53;13.00;99.90
13251;DHT22;6692;50.710;7.180;2023-07-22T03:55:54;13.00;99.90
13251;DHT22;6692;50.710;7.180;2023-07-22T03:57:54;13.00;99.90
13251;DHT22;6692;50.710;7.180;2023-07-22T03:59:55;13.00;99.90
13251;DHT22;6692;50.710;7.180;2023-07-22T04:01:56;13.00;99.90
13251;DHT22;6692;50.710;7.180;2023-07-22T04:03:57;13.00;99.90
13251;DHT22;6692;50.710;7.180;2023-07-22T04:05:58;13.00;99.90
13251;DHT22;6692;50.710;7.180;2023-07-22T04:07:59;13.00;99.90
13251;DHT22;6692;50.710;7.180;2023-07-22T04:10:00;13.00;99.90
13251;DHT22;6692;50.710;7.180;2023-07-22T04:12:01;13.00;99.90
13251;DHT22;6692;50.710;7.180;2023-07-22T04:14:01;13.00;99.90
13251;DHT22;6692;50.710;7.180;2023-07-22T04:16:02;13.10;99.90
13251;DHT22;6692;50.710;7.180;2023-07-22T04:18:03;13.10;99.90
13251;DHT22;6692;50.710;7.180;2023-07-22T04:20:05;13.10;99.90
13251;DHT22;6692;50.710;7.180;2023-07-22T04:22:06;13.10;99.90
13251;DHT22;6692;50.710;7.180;2023-07-22T04:24:07;13.10;99.90
13251;DHT22;6692;50.710;7.180;2023-07-22T04:26:08;13.10;99.90
13251;DHT22;6692;50.710;7.180;2023-07-22T04:28:10;13.20;99.90
13251;DHT22;6692;50.710;7.180;2023-07-22T04:30:11;13.10;99.90
13251;DHT22;6692;50.710;7.180;2023-07-22T04:32:12;13.10;99.90
13251;DHT22;6692;50.710;7.180;2023-07-22T04:34:12;13.10;99.90
13251;DHT22;6692;50.710;7.180;2023-07-22T04:36:13;13.10;99.90
13251;DHT22;6692;50.710;7.180;2023-07-22T04:38:14;13.10;99.90
13251;DHT22;6692;50.710;7.180;2023-07-22T04:40:14;13.20;99.90
13251;DHT22;6692;50.710;7.180;2023-07-22T04:42:15;13.20;99.90
13251;DHT22;6692;50.710;7.180;2023-07-22T04:44:16;13.20;99.90
13251;DHT22;6692;50.710;7.180;2023-07-22T04:46:17;13.30;99.90
13251;DHT22;6692;50.710;7.180;2023-07-22T04:48:19;13.40;99.90
13251;DHT22;6692;50.710;7.180;2023-07-22T04:50:18;13.50;99.90
13251;DHT22;6692;50.710;7.180;2023-07-22T04:52:19;13.50;99.90
13251;DHT22;6692;50.710;7.180;2023-07-22T04:54:19;13.60;99.90
13251;DHT22;6692;50.710;7.180;2023-07-22T04:56:20;13.70;99.90
13251;DHT22;6692;50.710;7.180;2023-07-22T04:58:21;13.70;99.90
13251;DHT22;6692;50.710;7.180;2023-07-22T05:00:22;13.80;99.90
13251;DHT22;6692;50.710;7.180;2023-07-22T05:02:22;13.90;99.90
13251;DHT22;6692;50.710;7.180;2023-07-22T05:04:23;13.90;99.90
13251;DHT22;6692;50.710;7.180;2023-07-22T05:06:24;14.00;99.90
13251;DHT22;6692;50.710;7.180;2023-07-22T05:08:24;14.10;99.90
13251;DHT22;6692;50.710;7.180;2023-07-22T05:10:25;14.20;99.90
13251;DHT22;6692;50.710;7.180;2023-07-22T05:12:26;14.30;99.90
13251;DHT22;6692;50.710;7.180;2023-07-22T05:14:27;14.40;99.90
13251;DHT22;6692;50.710;7.180;2023-07-22T05:16:27;14.40;99.90
13251;DHT22;6692;50.710;7.180;2023-07-22T05:18:28;14.50;99.90
13251;DHT22;6692;50.710;7.180;2023-07-22T05:20:29;14.50;99.90
13251;DHT22;6692;50.710;7.180;2023-07-22T05:22:29;14.60;99.90
13251;DHT22;6692;50.710;7.180;2023-07-22T05:24:30;14.60;99.90
13251;DHT22;6692;50.710;7.180;2023-07-22T05:26:31;14.70;99.90
13251;DHT22;6692;50.710;7.180;2023-07-22T05:28:32;14.70;99.90
13251;DHT22;6692;50.710;7.180;2023-07-22T05:30:33;14.70;99.90
13251;DHT22;6692;50.710;7.180;2023-07-22T05:32:34;14.80;99.90
13251;DHT22;6692;50.710;7.180;2023-07-22T05:34:34;14.70;99.90
13251;DHT22;6692;50.710;7.180;2023-07-22T05:36:35;14.70;99.90
13251;DHT22;6692;50.710;7.180;2023-07-22T05:38:36;14.60;99.90
13251;DHT22;6692;50.710;7.180;2023-07-22T05:40:36;14.60;99.90
13251;DHT22;6692;50.710;7.180;2023-07-22T05:42:37;14.50;99.90
13251;DHT22;6692;50.710;7.180;2023-07-22T05:44:38;14.50;99.90
13251;DHT22;6692;50.710;7.180;2023-07-22T05:46:39;14.60;99.90
13251;DHT22;6692;50.710;7.180;2023-07-22T05:48:39;14.60;99.90
13251;DHT22;6692;50.710;7.180;2023-07-22T05:50:40;14.70;99.90
13251;DHT22;6692;50.710;7.180;2023-07-22T05:52:42;14.80;99.90
13251;DHT22;6692;50.710;7.180;2023-07-22T05:54:42;14.80;99.90
13251;DHT22;6692;50.710;7.180;2023-07-22T05:56:43;14.90;99.90
13251;DHT22;6692;50.710;7.180;2023-07-22T05:58:44;14.90;99.90
13251;DHT22;6692;50.710;7.180;2023-07-22T06:00:44;14.90;99.90
13251;DHT22;6692;50.710;7.180;2023-07-22T06:02:45;15.00;99.90
13251;DHT22;6692;50.710;7.180;2023-07-22T06:04:46;15.00;99.90
13251;DHT22;6692;50.710;7.180;2023-07-22T06:06:46;15.10;99.90
13251;DHT22;6692;50.710;7.180;2023-07-22T06:08:47;15.20;99.90
13251;DHT22;6692;50.710;7.180;2023-07-22T06:10:48;15.30;99.90
13251;DHT22;6692;50.710;7.180;2023-07-22T06:12:49;15.40;99.90
13251;DHT22;6692;50.710;7.180;2023-07-22T06:14:49;15.40;99.90
13251;DHT22;6692;50.710;7.180;2023-07-22T06:16:50;15.50;99.90
13251;DHT22;6692;50.710;7.180;2023-07-22T06:18:51;15.50;99.90
13251;DHT22;6692;50.710;7.180;2023-07-22T06:20:51;15.50;99.90
13251;DHT22;6692;50.710;7.180;2023-07-22T06:22:52;15.60;99.90
13251;DHT22;6692;50.710;7.180;2023-07-22T06:24:53;15.60;99.90
13251;DHT22;6692;50.710;7.180;2023-07-22T06:26:53;15.60;99.90
13251;DHT22;6692;50.710;7.180;2023-07-22T06:28:55;15.80;99.90
13251;DHT22;6692;50.710;7.180;2023-07-22T06:30:56;15.80;99.90
13251;DHT22;6692;50.710;7.180;2023-07-22T06:32:56;16.00;99.90
13251;DHT22;6692;50.710;7.180;2023-07-22T06:34:57;16.10;99.90
13251;DHT22;6692;50.710;7.180;2023-07-22T06:36:58;16.30;99.90
13251;DHT22;6692;50.710;7.180;2023-07-22T06:38:59;16.30;99.90
13251;DHT22;6692;50.710;7.180;2023-07-22T06:41:00;16.40;99.90
13251;DHT22;6692;50.710;7.180;2023-07-22T06:43:00;16.40;99.90
13251;DHT22;6692;50.710;7.180;2023-07-22T06:45:01;16.50;99.90
13251;DHT22;6692;50.710;7.180;2023-07-22T06:47:03;16.60;99.90
13251;DHT22;6692;50.710;7.180;2023-07-22T06:49:04;16.60;99.90
13251;DHT22;6692;50.710;7.180;2023-07-22T06:51:06;16.60;99.90
13251;DHT22;6692;50.710;7.180;2023-07-22T06:53:06;16.70;99.90
13251;DHT22;6692;50.710;7.180;2023-07-22T06:55:07;16.70;99.90
13251;DHT22;6692;50.710;7.180;2023-07-22T06:57:08;16.70;99.90
13251;DHT22;6692;50.710;7.180;2023-07-22T06:59:09;16.60;99.90
13251;DHT22;6692;50.710;7.180;2023-07-22T07:01:10;16.70;99.90
13251;DHT22;6692;50.710;7.180;2023-07-22T07:03:11;16.60;99.90
13251;DHT22;6692;50.710;7.180;2023-07-22T07:05:12;16.60;99.90
13251;DHT22;6692;50.710;7.180;2023-07-22T07:07:13;16.70;99.90
13251;DHT22;6692;50.710;7.180;2023-07-22T07:09:15;16.70;99.90
13251;DHT22;6692;50.710;7.180;2023-07-22T07:11:15;16.60;99.90
13251;DHT22;6692;50.710;7.180;2023-07-22T07:13:16;16.70;99.90
13251;DHT22;6692;50.710;7.180;2023-07-22T07:15:17;16.70;99.90
13251;DHT22;6692;50.710;7.180;2023-07-22T07:17:18;16.70;99.90
13251;DHT22;6692;50.710;7.180;2023-07-22T07:19:18;16.80;99.90
13251;DHT22;6692;50.710;7.180;2023-07-22T07:21:20;16.80;99.90
13251;DHT22;6692;50.710;7.180;2023-07-22T07:23:21;16.80;99.90
13251;DHT22;6692;50.710;7.180;2023-07-22T07:25:22;16.90;99.90
13251;DHT22;6692;50.710;7.180;2023-07-22T07:27:22;16.90;99.90
13251;DHT22;6692;50.710;7.180;2023-07-22T07:29:23;16.90;99.90
13251;DHT22;6692;50.710;7.180;2023-07-22T07:31:24;17.00;99.90
13251;DHT22;6692;50.710;7.180;2023-07-22T07:33:25;17.00;99.90
13251;DHT22;6692;50.710;7.180;2023-07-22T07:35:27;17.10;99.90
13251;DHT22;6692;50.710;7.180;2023-07-22T07:37:27;17.10;99.90
13251;DHT22;6692;50.710;7.180;2023-07-22T07:39:29;17.20;99.90
13251;DHT22;6692;50.710;7.180;2023-07-22T07:41:30;17.20;99.90
13251;DHT22;6692;50.710;7.180;2023-07-22T07:43:31;17.20;99.90
13251;DHT22;6692;50.710;7.180;2023-07-22T07:45:32;17.20;99.90
13251;DHT22;6692;50.710;7.180;2023-07-22T07:47:32;17.30;99.90
13251;DHT22;6692;50.710;7.180;2023-07-22T07:49:33;17.40;99.90
13251;DHT22;6692;50.710;7.180;2023-07-22T07:51:34;17.50;99.90
13251;DHT22;6692;50.710;7.180;2023-07-22T07:53:34;17.70;99.90
13251;DHT22;6692;50.710;7.180;2023-07-22T07:55:35;17.70;99.90
13251;DHT22;6692;50.710;7.180;2023-07-22T07:57:37;17.90;99.90
13251;DHT22;6692;50.710;7.180;2023-07-22T07:59:38;17.90;99.90
13251;DHT22;6692;50.710;7.180;2023-07-22T08:01:39;17.90;99.90
13251;DHT22;6692;50.710;7.180;2023-07-22T08:03:40;17.90;99.90
13251;DHT22;6692;50.710;7.180;2023-07-22T08:05:40;17.90;99.90
13251;DHT22;6692;50.710;7.180;2023-07-22T08:07:42;17.90;99.90
13251;DHT22;6692;50.710;7.180;2023-07-22T08:09:42;17.90;99.90
13251;DHT22;6692;50.710;7.180;2023-07-22T08:11:43;18.00;99.90
13251;DHT22;6692;50.710;7.180;2023-07-22T08:13:44;18.10;99.90
13251;DHT22;6692;50.710;7.180;2023-07-22T08:15:45;18.40;99.90
13251;DHT22;6692;50.710;7.180;2023-07-22T08:17:46;18.30;99.90
13251;DHT22;6692;50.710;7.180;2023-07-22T08:19:47;18.50;99.90
13251;DHT22;6692;50.710;7.180;2023-07-22T08:21:49;18.50;99.90
13251;DHT22;6692;50.710;7.180;2023-07-22T08:23:49;18.50;99.90
13251;DHT22;6692;50.710;7.180;2023-07-22T08:25:51;18.60;99.90
13251;DHT22;6692;50.710;7.180;2023-07-22T08:27:52;18.60;99.90
13251;DHT22;6692;50.710;7.180;2023-07-22T08:29:52;18.70;99.90
13251;DHT22;6692;50.710;7.180;2023-07-22T08:31:54;19.00;99.90
13251;DHT22;6692;50.710;7.180;2023-07-22T08:33:54;19.00;99.90
13251;DHT22;6692;50.710;7.180;2023-07-22T08:35:55;19.20;99.90
13251;DHT22;6692;50.710;7.180;2023-07-22T08:37:56;19.40;99.90
13251;DHT22;6692;50.710;7.180;2023-07-22T08:39:57;19.50;99.90
13251;DHT22;6692;50.710;7.180;2023-07-22T08:41:57;19.70;99.90
13251;DHT22;6692;50.710;7.180;2023-07-22T08:43:59;19.90;99.90
13251;DHT22;6692;50.710;7.180;2023-07-22T08:45:59;20.00;99.90
13251;DHT22;6692;50.710;7.180;2023-07-22T08:48:00;20.20;99.90
13251;DHT22;6692;50.710;7.180;2023-07-22T08:50:01;20.30;99.90
13251;DHT22;6692;50.710;7.180;2023-07-22T08:52:01;20.30;99.90
13251;DHT22;6692;50.710;7.180;2023-07-22T08:54:02;20.30;99.90
13251;DHT22;6692;50.710;7.180;2023-07-22T08:56:03;20.40;99.90
13251;DHT22;6692;50.710;7.180;2023-07-22T08:58:04;20.60;99.90
13251;DHT22;6692;50.710;7.180;2023-07-22T09:00:05;20.80;99.90
13251;DHT22;6692;50.710;7.180;2023-07-22T09:02:08;20.90;99.90
13251;DHT22;6692;50.710;7.180;2023-07-22T09:04:08;21.10;99.90
13251;DHT22;6692;50.710;7.180;2023-07-22T09:06:09;21.10;99.90
13251;DHT22;6692;50.710;7.180;2023-07-22T09:08:09;21.20;99.90
13251;DHT22;6692;50.710;7.180;2023-07-22T09:10:10;21.20;99.90
13251;DHT22;6692;50.710;7.180;2023-07-22T09:12:11;21.30;99.90
13251;DHT22;6692;50.710;7.180;2023-07-22T09:14:12;21.30;99.90
13251;DHT22;6692;50.710;7.180;2023-07-22T09:16:12;21.30;99.90
13251;DHT22;6692;50.710;7.180;2023-07-22T09:18:13;21.40;99.90
13251;DHT22;6692;50.710;7.180;2023-07-22T09:20:14;21.40;99.90
13251;DHT22;6692;50.710;7.180;2023-07-22T09:22:14;21.50;99.90
13251;DHT22;6692;50.710;7.180;2023-07-22T09:24:20;21.70;99.90
13251;DHT22;6692;50.710;7.180;2023-07-22T09:26:21;21.70;99.90
13251;DHT22;6692;50.710;7.180;2023-07-22T09:28:22;21.70;99.90
13251;DHT22;6692;50.710;7.180;2023-07-22T09:30:27;21.70;99.90
13251;DHT22;6692;50.710;7.180;2023-07-22T09:32:38;21.70;99.90
13251;DHT22;6692;50.710;7.180;2023-07-22T09:34:53;21.60;99.90
13251;DHT22;6692;50.710;7.180;2023-07-22T09:39:00;21.60;99.90
13251;DHT22;6692;50.710;7.180;2023-07-22T09:41:00;21.60;99.90
13251;DHT22;6692;50.710;7.180;2023-07-22T09:43:02;21.60;99.90
13251;DHT22;6692;50.710;7.180;2023-07-22T09:45:03;21.60;99.90
13251;DHT22;6692;50.710;7.180;2023-07-22T09:47:05;21.80;99.90
13251;DHT22;6692;50.710;7.180;2023-07-22T09:49:08;21.80;99.90
13251;DHT22;6692;50.710;7.180;2023-07-22T09:51:15;21.80;99.90
13251;DHT22;6692;50.710;7.180;2023-07-22T09:53:15;21.90;99.90
13251;DHT22;6692;50.710;7.180;2023-07-22T09:55:18;21.90;99.90
13251;DHT22;6692;50.710;7.180;2023-07-22T09:57:18;21.90;99.90
13251;DHT22;6692;50.710;7.180;2023-07-22T09:59:18;21.90;99.90
13251;DHT22;6692;50.710;7.180;2023-07-22T10:01:19;21.90;99.90
13251;DHT22;6692;50.710;7.180;2023-07-22T10:03:19;21.80;99.90
13251;DHT22;6692;50.710;7.180;2023-07-22T10:05:20;21.80;99.90
13251;DHT22;6692;50.710;7.180;2023-07-22T10:07:21;21.80;99.90
13251;DHT22;6692;50.710;7.180;2023-07-22T10:09:22;21.80;99.90
13251;DHT22;6692;50.710;7.180;2023-07-22T10:11:22;21.80;99.90
13251;DHT22;6692;50.710;7.180;2023-07-22T10:13:24;21.90;99.90
13251;DHT22;6692;50.710;7.180;2023-07-22T10:15:25;22.00;99.90
13251;DHT22;6692;50.710;7.180;2023-07-22T10:17:26;22.00;99.90
13251;DHT22;6692;50.710;7.180;2023-07-22T10:19:26;22.10;99.90
13251;DHT22;6692;50.710;7.180;2023-07-22T10:21:27;22.10;99.90
13251;DHT22;6692;50.710;7.180;2023-07-22T10:23:27;22.10;99.90
13251;DHT22;6692;50.710;7.180;2023-07-22T10:25:28;22.10;99.90
13251;DHT22;6692;50.710;7.180;2023-07-22T10:27:29;22.10;99.90
13251;DHT22;6692;50.710;7.180;2023-07-22T10:29:30;22.10;99.90
13251;DHT22;6692;50.710;7.180;2023-07-22T10:31:31;22.10;99.90
13251;DHT22;6692;50.710;7.180;2023-07-22T10:33:31;22.20;99.90
13251;DHT22;6692;50.710;7.180;2023-07-22T10:35:34;22.30;99.90
13251;DHT22;6692;50.710;7.180;2023-07-22T10:37:34;22.30;99.90
13251;DHT22;6692;50.710;7.180;2023-07-22T10:39:35;22.40;99.90
13251;DHT22;6692;50.710;7.180;2023-07-22T10:41:37;22.40;99.90
13251;DHT22;6692;50.710;7.180;2023-07-22T10:43:37;22.60;99.90
13251;DHT22;6692;50.710;7.180;2023-07-22T10:45:40;22.60;99.90
13251;DHT22;6692;50.710;7.180;2023-07-22T10:47:40;22.60;99.90
13251;DHT22;6692;50.710;7.180;2023-07-22T10:49:43;22.80;99.90
13251;DHT22;6692;50.710;7.180;2023-07-22T10:51:48;22.80;99.90
13251;DHT22;6692;50.710;7.180;2023-07-22T10:53:49;22.90;99.90
13251;DHT22;6692;50.710;7.180;2023-07-22T10:56:03;22.90;99.90
13251;DHT22;6692;50.710;7.180;2023-07-22T10:58:03;23.00;99.90
13251;DHT22;6692;50.710;7.180;2023-07-22T11:00:04;23.00;99.90
13251;DHT22;6692;50.710;7.180;2023-07-22T11:02:07;23.00;99.90
13251;DHT22;6692;50.710;7.180;2023-07-22T11:04:11;23.00;99.90
13251;DHT22;6692;50.710;7.180;2023-07-22T11:06:11;23.00;99.90
13251;DHT22;6692;50.710;7.180;2023-07-22T11:08:12;23.00;99.90
13251;DHT22;6692;50.710;7.180;2023-07-22T11:10:14;23.00;99.90
13251;DHT22;6692;50.710;7.180;2023-07-22T11:12:16;23.00;99.90
13251;DHT22;6692;50.710;7.180;2023-07-22T11:14:18;23.00;99.90
13251;DHT22;6692;50.710;7.180;2023-07-22T11:16:17;23.00;99.90
13251;DHT22;6692;50.710;7.180;2023-07-22T11:18:18;23.00;99.90
13251;DHT22;6692;50.710;7.180;2023-07-22T11:20:19;23.10;99.90
13251;DHT22;6692;50.710;7.180;2023-07-22T11:22:19;23.10;99.90
13251;DHT22;6692;50.710;7.180;2023-07-22T11:24:20;23.10;99.90
13251;DHT22;6692;50.710;7.180;2023-07-22T11:26:21;23.20;99.90
13251;DHT22;6692;50.710;7.180;2023-07-22T11:28:21;23.20;99.90
13251;DHT22;6692;50.710;7.180;2023-07-22T11:30:23;23.20;97.40
13251;DHT22;6692;50.710;7.180;2023-07-22T11:32:23;23.30;97.90
13251;DHT22;6692;50.710;7.180;2023-07-22T11:34:24;23.30;95.50
13251;DHT22;6692;50.710;7.180;2023-07-22T11:36:25;23.30;94.80
13251;DHT22;6692;50.710;7.180;2023-07-22T11:38:25;23.20;90.60
13251;DHT22;6692;50.710;7.180;2023-07-22T11:40:32;23.10;90.60
13251;DHT22;6692;50.710;7.180;2023-07-22T11:42:26;23.20;88.00
13251;DHT22;6692;50.710;7.180;2023-07-22T11:44:27;23.20;87.90
13251;DHT22;6692;50.710;7.180;2023-07-22T11:46:28;23.20;89.30
13251;DHT22;6692;50.710;7.180;2023-07-22T11:48:29;23.10;93.10
13251;DHT22;6692;50.710;7.180;2023-07-22T11:50:33;23.00;95.50
13251;DHT22;6692;50.710;7.180;2023-07-22T11:52:34;23.00;96.50
13251;DHT22;6692;50.710;7.180;2023-07-22T11:54:35;23.00;96.00
13251;DHT22;6692;50.710;7.180;2023-07-22T11:56:35;23.00;96.60
13251;DHT22;6692;50.710;7.180;2023-07-22T11:58:37;23.00;96.90
13251;DHT22;6692;50.710;7.180;2023-07-22T12:00:41;23.00;97.10
13251;DHT22;6692;50.710;7.180;2023-07-22T12:02:40;23.00;97.10
13251;DHT22;6692;50.710;7.180;2023-07-22T12:04:40;23.10;94.50
13251;DHT22;6692;50.710;7.180;2023-07-22T12:06:41;23.10;93.30
13251;DHT22;6692;50.710;7.180;2023-07-22T12:08:44;23.10;91.60
13251;DHT22;6692;50.710;7.180;2023-07-22T12:10:55;23.10;81.20
13251;DHT22;6692;50.710;7.180;2023-07-22T12:12:46;23.10;81.20
13251;DHT22;6692;50.710;7.180;2023-07-22T12:14:48;23.30;83.50
13251;DHT22;6692;50.710;7.180;2023-07-22T12:16:52;23.30;81.70
13251;DHT22;6692;50.710;7.180;2023-07-22T12:18:50;23.30;81.70
13251;DHT22;6692;50.710;7.180;2023-07-22T12:20:51;23.50;83.50
13251;DHT22;6692;50.710;7.180;2023-07-22T12:22:52;23.90;89.70
13251;DHT22;6692;50.710;7.180;2023-07-22T12:24:53;23.90;89.70
13251;DHT22;6692;50.710;7.180;2023-07-22T12:26:54;24.30;81.50
13251;DHT22;6692;50.710;7.180;2023-07-22T12:28:55;24.20;82.20
13251;DHT22;6692;50.710;7.180;2023-07-22T12:30:56;24.40;83.10
13251;DHT22;6692;50.710;7.180;2023-07-22T12:32:56;24.50;84.70
13251;DHT22;6692;50.710;7.180;2023-07-22T12:34:57;24.70;76.40
13251;DHT22;6692;50.710;7.180;2023-07-22T12:36:58;24.90;76.80
13251;DHT22;6692;50.710;7.180;2023-07-22T12:38:59;25.10;76.50
13251;DHT22;6692;50.710;7.180;2023-07-22T12:41:00;25.10;75.00
13251;DHT22;6692;50.710;7.180;2023-07-22T12:43:01;25.10;74.90
13251;DHT22;6692;50.710;7.180;2023-07-22T12:45:02;25.50;75.10
13251;DHT22;6692;50.710;7.180;2023-07-22T12:47:03;26.70;72.80
13251;DHT22;6692;50.710;7.180;2023-07-22T12:49:03;27.50;73.10
13251;DHT22;6692;50.710;7.180;2023-07-22T12:51:04;27.90;66.30
13251;DHT22;6692;50.710;7.180;2023-07-22T12:53:05;28.00;64.00
13251;DHT22;6692;50.710;7.180;2023-07-22T12:55:06;27.90;63.60
13251;DHT22;6692;50.710;7.180;2023-07-22T12:57:07;27.90;67.10